Time,TemperatureF,DewpointF,PressureIn,WindDirection,WindDirectionDegrees,WindSpeedMPH,WindSpeedGustMPH,Humidity,HourlyPrecipIn,Conditions,Clouds,dailyrainin,SolarRadiationWatts/m^2,SoftwareType,DateUTC
2013-04-29 00:00:00,56.3,53.4,29.97,ENE,68,0.0,0.0,90,0.00,CLR,,0.06,0.0,WeatherDisplay:10.37,2013-04-28 22:00:00,
2013-04-29 00:05:00,56.3,53.4,29.97,ENE,68,0.0,0.0,90,0.00,CLR,,0.06,0.0,WeatherDisplay:10.37,2013-04-28 22:05:00,
2013-04-29 00:10:00,56.1,53.2,29.97,ENE,68,0.0,0.0,90,0.00,CLR,,0.06,0.0,WeatherDisplay:10.37,2013-04-28 22:10:00,
2013-04-29 00:15:00,56.1,53.2,29.97,ENE,68,0.0,0.0,90,0.00,CLR,,0.06,0.0,WeatherDisplay:10.37,2013-04-28 22:15:00,
2013-04-29 00:20:00,55.9,53.0,29.97,ENE,68,0.0,0.0,90,0.00,CLR,,0.06,0.0,WeatherDisplay:10.37,2013-04-28 22:20:00,
2013-04-29 00:25:00,55.9,53.0,29.97,ENE,68,0.0,0.0,90,0.00,CLR,,0.06,0.0,WeatherDisplay:10.37,2013-04-28 22:25:00,
2013-04-29 00:30:00,55.8,52.9,29.97,ENE,68,0.0,0.0,90,0.00,CLR,,0.06,0.0,WeatherDisplay:10.37,2013-04-28 22:30:00,
2013-04-29 00:35:00,55.8,53.2,29.97,ENE,68,0.0,0.0,91,0.00,CLR,,0.06,0.0,WeatherDisplay:10.37,2013-04-28 22:35:00,
2013-04-29 00:40:00,55.6,53.0,29.97,WSW,248,0.0,0.0,91,0.00,CLR,,0.06,0.0,WeatherDisplay:10.37,2013-04-28 22:40:00,
2013-04-29 00:45:00,55.4,52.8,29.97,WSW,248,0.0,0.0,91,0.00,CLR,,0.06,0.0,WeatherDisplay:10.37,2013-04-28 22:45:00,
2013-04-29 00:50:00,55.4,52.8,29.94,WSW,248,0.0,0.0,91,0.00,CLR,,0.06,0.0,WeatherDisplay:10.37,2013-04-28 22:50:00,
2013-04-29 00:55:00,55.2,52.6,29.94,WSW,248,0.0,0.0,91,0.00,CLR,,0.06,0.0,WeatherDisplay:10.37,2013-04-28 22:55:00,
2013-04-29 01:00:00,55.0,52.5,29.94,WSW,248,0.0,0.0,91,0.00,CLR,,0.06,0.0,WeatherDisplay:10.37,2013-04-28 23:00:00,
2013-04-29 01:05:00,55.0,52.5,29.97,West,270,0.0,0.0,91,0.00,CLR,,0.06,0.0,WeatherDisplay:10.37,2013-04-28 23:05:00,
2013-04-29 01:10:00,54.9,52.3,29.97,West,270,0.0,0.0,91,0.00,CLR,,0.06,0.0,WeatherDisplay:10.37,2013-04-28 23:10:00,
2013-04-29 01:15:00,54.9,52.3,29.97,West,270,0.0,0.0,91,0.00,CLR,,0.06,0.0,WeatherDisplay:10.37,2013-04-28 23:15:00,
2013-04-29 01:20:00,54.7,52.1,29.97,West,270,0.0,0.0,91,0.00,CLR,,0.06,0.0,WeatherDisplay:10.37,2013-04-28 23:20:00,
2013-04-29 01:25:00,54.7,52.1,29.97,West,270,0.0,0.0,91,0.00,CLR,,0.06,0.0,WeatherDisplay:10.37,2013-04-28 23:25:00,
2013-04-29 01:30:00,54.5,51.9,29.97,West,270,0.0,0.0,91,0.00,CLR,,0.06,0.0,WeatherDisplay:10.37,2013-04-28 23:30:00,
2013-04-29 01:35:00,54.5,51.9,29.97,West,270,0.0,0.0,91,0.00,CLR,,0.06,0.0,WeatherDisplay:10.37,2013-04-28 23:35:00,
2013-04-29 01:40:00,54.3,51.7,29.97,West,270,0.0,0.0,91,0.00,CLR,,0.06,0.0,WeatherDisplay:10.37,2013-04-28 23:40:00,
2013-04-29 01:45:00,54.3,52.0,29.97,West,270,0.0,0.0,92,0.00,CLR,,0.06,0.0,WeatherDisplay:10.37,2013-04-28 23:45:00,
2013-04-29 01:50:00,54.1,51.9,30.00,West,270,0.0,0.0,92,0.00,CLR,,0.06,0.0,WeatherDisplay:10.37,2013-04-28 23:50:00,
2013-04-29 01:55:00,54.1,51.9,30.00,West,270,0.0,0.0,92,0.00,CLR,,0.06,0.0,WeatherDisplay:10.37,2013-04-28 23:55:00,
2013-04-29 02:00:00,54.0,51.7,30.00,West,270,0.0,0.0,92,0.00,CLR,,0.06,0.0,WeatherDisplay:10.37,2013-04-29 00:00:00,
2013-04-29 02:05:00,54.0,51.7,30.00,West,270,0.0,0.0,92,0.00,CLR,,0.06,0.0,WeatherDisplay:10.37,2013-04-29 00:05:00,
2013-04-29 02:10:00,53.8,51.5,30.00,West,270,0.0,0.0,92,0.00,CLR,,0.06,0.0,WeatherDisplay:10.37,2013-04-29 00:10:00,
2013-04-29 02:15:00,53.8,51.5,30.00,West,270,0.0,0.0,92,0.00,CLR,,0.06,0.0,WeatherDisplay:10.37,2013-04-29 00:15:00,
2013-04-29 02:20:00,53.6,51.3,29.97,West,270,0.0,0.0,92,0.00,CLR,,0.06,0.0,WeatherDisplay:10.37,2013-04-29 00:20:00,
2013-04-29 02:25:00,53.6,51.3,29.97,West,270,0.0,0.0,92,0.00,CLR,,0.06,0.0,WeatherDisplay:10.37,2013-04-29 00:25:00,
2013-04-29 02:30:00,53.4,51.4,29.97,NNE,22,0.0,0.0,93,0.00,CLR,,0.06,0.0,WeatherDisplay:10.37,2013-04-29 00:30:00,
2013-04-29 02:35:00,53.4,51.4,29.97,NNE,22,0.0,0.0,93,0.00,CLR,,0.06,0.0,WeatherDisplay:10.37,2013-04-29 00:35:00,
2013-04-29 02:40:00,53.2,51.3,29.97,NNE,22,0.0,0.0,93,0.00,CLR,,0.06,0.0,WeatherDisplay:10.37,2013-04-29 00:40:00,
2013-04-29 02:45:00,53.2,51.3,29.97,NNE,22,0.0,0.0,93,0.00,CLR,,0.06,0.0,WeatherDisplay:10.37,2013-04-29 00:45:00,
2013-04-29 02:50:00,53.2,51.3,30.00,NNE,22,0.0,0.0,93,0.00,CLR,,0.06,0.0,WeatherDisplay:10.37,2013-04-29 00:50:00,
2013-04-29 02:55:00,53.1,51.1,30.00,ENE,68,0.0,0.0,93,0.00,CLR,,0.06,0.0,WeatherDisplay:10.37,2013-04-29 00:55:00,
2013-04-29 03:00:00,53.1,51.1,30.00,SSW,202,0.0,0.0,93,0.00,CLR,,0.06,0.0,WeatherDisplay:10.37,2013-04-29 01:00:00,
2013-04-29 03:05:00,53.1,51.1,30.00,SSW,202,0.0,0.0,93,0.00,CLR,,0.06,0.0,WeatherDisplay:10.37,2013-04-29 01:05:00,
2013-04-29 03:10:00,52.9,50.9,30.00,WSW,248,0.0,0.0,93,0.00,CLR,,0.06,0.0,WeatherDisplay:10.37,2013-04-29 01:10:00,
2013-04-29 03:15:00,52.9,50.9,30.00,SSW,202,0.0,0.0,93,0.00,CLR,,0.06,0.0,WeatherDisplay:10.37,2013-04-29 01:15:00,
2013-04-29 03:20:00,52.9,51.2,29.97,SSW,202,2.0,2.0,94,0.00,CLR,,0.06,0.0,WeatherDisplay:10.37,2013-04-29 01:20:00,
2013-04-29 03:25:00,53.1,51.7,29.97,SSW,202,3.6,3.6,95,0.00,CLR,,0.06,0.0,WeatherDisplay:10.37,2013-04-29 01:25:00,
2013-04-29 03:30:00,53.6,52.8,29.97,SSW,202,2.3,2.6,97,0.00,CLR,,0.06,0.0,WeatherDisplay:10.37,2013-04-29 01:30:00,
2013-04-29 03:35:00,54.0,53.1,30.00,SSW,202,3.5,3.5,97,0.00,CLR,,0.06,0.0,WeatherDisplay:10.37,2013-04-29 01:35:00,
2013-04-29 03:40:00,54.3,53.2,30.00,WSW,248,3.5,3.5,96,0.00,CLR,,0.06,0.0,WeatherDisplay:10.37,2013-04-29 01:40:00,
2013-04-29 03:45:00,54.3,52.9,30.00,SSW,202,2.3,2.3,95,0.00,CLR,,0.06,0.0,WeatherDisplay:10.37,2013-04-29 01:45:00,
2013-04-29 03:50:00,54.3,52.6,30.00,SW,225,2.3,2.3,94,0.00,CLR,,0.06,0.0,WeatherDisplay:10.37,2013-04-29 01:50:00,
2013-04-29 03:55:00,54.3,52.3,30.00,WSW,248,2.3,2.3,93,0.00,CLR,,0.06,0.0,WeatherDisplay:10.37,2013-04-29 01:55:00,
2013-04-29 04:00:00,54.3,52.3,30.00,SSW,202,0.0,0.0,93,0.00,CLR,,0.06,0.0,WeatherDisplay:10.37,2013-04-29 02:00:00,
2013-04-29 04:05:00,54.3,52.0,29.97,ESE,112,0.0,0.0,92,0.00,CLR,,0.06,0.0,WeatherDisplay:10.37,2013-04-29 02:05:00,
2013-04-29 04:10:00,54.1,51.9,29.97,NNE,22,0.0,0.0,92,0.00,CLR,,0.06,0.0,WeatherDisplay:10.37,2013-04-29 02:10:00,
2013-04-29 04:15:00,54.0,51.7,29.97,ENE,68,0.0,0.0,92,0.00,CLR,,0.06,0.0,WeatherDisplay:10.37,2013-04-29 02:15:00,
2013-04-29 04:20:00,53.8,51.2,30.00,ENE,68,0.0,0.0,91,0.00,CLR,,0.06,0.0,WeatherDisplay:10.37,2013-04-29 02:20:00,
2013-04-29 04:25:00,53.6,51.0,30.00,ENE,68,0.0,0.0,91,0.00,CLR,,0.06,0.0,WeatherDisplay:10.37,2013-04-29 02:25:00,
2013-04-29 04:30:00,53.2,50.7,30.00,NNE,22,0.0,0.0,91,0.00,CLR,,0.06,0.0,WeatherDisplay:10.37,2013-04-29 02:30:00,
2013-04-29 04:35:00,53.1,50.5,30.00,NNE,22,0.0,0.0,91,0.00,CLR,,0.06,0.0,WeatherDisplay:10.37,2013-04-29 02:35:00,
2013-04-29 04:40:00,52.9,50.3,30.00,NNE,22,0.0,0.0,91,0.00,CLR,,0.06,0.0,WeatherDisplay:10.37,2013-04-29 02:40:00,
2013-04-29 04:45:00,52.5,50.0,30.00,NNE,22,0.0,0.0,91,0.00,CLR,,0.06,0.0,WeatherDisplay:10.37,2013-04-29 02:45:00,
2013-04-29 04:50:00,52.3,49.8,30.00,NNE,22,0.0,0.0,91,0.00,CLR,,0.06,0.0,WeatherDisplay:10.37,2013-04-29 02:50:00,
2013-04-29 04:55:00,52.2,49.6,30.00,SSE,158,0.0,0.0,91,0.00,CLR,,0.06,0.0,WeatherDisplay:10.37,2013-04-29 02:55:00,
2013-04-29 05:00:00,52.0,49.4,30.00,NNE,22,0.0,0.0,91,0.00,OVC,,0.06,0.0,WeatherDisplay:10.37,2013-04-29 03:00:00,
2013-04-29 05:05:00,51.8,49.3,30.03,NNW,338,0.0,0.0,91,0.00,OVC,,0.06,0.0,WeatherDisplay:10.37,2013-04-29 03:05:00,
2013-04-29 05:10:00,51.6,49.4,30.03,NNW,338,0.0,0.0,92,0.00,OVC,,0.06,0.0,WeatherDisplay:10.37,2013-04-29 03:10:00,
2013-04-29 05:15:00,51.6,49.4,30.03,NNW,338,0.0,0.0,92,0.00,OVC,,0.06,0.0,WeatherDisplay:10.37,2013-04-29 03:15:00,
2013-04-29 05:20:00,51.4,49.2,30.03,NNW,338,0.0,0.0,92,0.00,OVC,,0.06,0.0,WeatherDisplay:10.37,2013-04-29 03:20:00,
2013-04-29 05:25:00,51.4,49.2,30.03,NNW,338,0.0,0.0,92,0.00,OVC,,0.06,0.0,WeatherDisplay:10.37,2013-04-29 03:25:00,
2013-04-29 05:30:00,51.3,49.0,30.03,NW,315,0.0,0.0,92,0.00,OVC,,0.06,0.0,WeatherDisplay:10.37,2013-04-29 03:30:00,
2013-04-29 05:35:00,51.1,49.1,30.03,NNW,338,0.0,0.0,93,0.00,OVC,,0.06,0.0,WeatherDisplay:10.37,2013-04-29 03:35:00,
2013-04-29 05:40:00,51.1,49.1,30.03,NNW,338,0.0,0.0,93,0.00,OVC,,0.06,0.0,WeatherDisplay:10.37,2013-04-29 03:40:00,
2013-04-29 05:45:00,51.1,49.1,30.03,NNW,338,0.0,0.0,93,0.00,OVC,,0.06,0.5,WeatherDisplay:10.37,2013-04-29 03:45:00,
2013-04-29 05:50:00,51.1,49.1,30.03,North,0,0.0,0.0,93,0.00,OVC,,0.06,2.8,WeatherDisplay:10.37,2013-04-29 03:50:00,
2013-04-29 05:55:00,50.9,48.9,30.03,North,0,0.0,0.0,93,0.00,OVC,,0.06,5.3,WeatherDisplay:10.37,2013-04-29 03:55:00,
2013-04-29 06:00:00,50.9,49.2,30.03,NNE,22,0.0,0.0,94,0.00,OVC,,0.06,7.8,WeatherDisplay:10.37,2013-04-29 04:00:00,
2013-04-29 06:01:00,50.9,49.2,30.03,NNE,22,0.0,0.0,94,0.00,OVC,,0.06,7.8,WeatherDisplay:10.37,2013-04-29 04:01:00,
2013-04-29 06:06:00,50.9,49.2,30.03,North,0,0.0,0.0,94,0.00,OVC,,0.06,10.7,WeatherDisplay:10.37,2013-04-29 04:06:00,
2013-04-29 06:11:00,50.9,49.2,30.03,North,0,0.0,0.0,94,0.00,OVC,,0.06,13.4,WeatherDisplay:10.37,2013-04-29 04:11:00,
2013-04-29 06:16:00,50.9,49.2,30.00,ENE,68,0.0,0.0,94,0.00,OVC,,0.06,15.8,WeatherDisplay:10.37,2013-04-29 04:16:00,
2013-04-29 06:21:00,51.1,49.4,30.00,ENE,68,0.0,0.0,94,0.00,OVC,,0.06,18.5,WeatherDisplay:10.37,2013-04-29 04:21:00,
2013-04-29 06:26:00,51.3,49.6,30.00,NE,45,0.0,0.0,94,0.00,OVC,,0.06,21.0,WeatherDisplay:10.37,2013-04-29 04:26:00,
2013-04-29 06:31:00,51.6,50.2,30.03,NNE,22,0.0,0.0,95,0.00,OVC,,0.06,23.6,WeatherDisplay:10.37,2013-04-29 04:31:00,
2013-04-29 06:36:00,52.0,50.6,30.03,NNE,22,0.0,0.0,95,0.00,OVC,,0.06,26.2,WeatherDisplay:10.37,2013-04-29 04:36:00,
2013-04-29 06:41:00,52.3,51.0,30.03,NE,45,0.0,0.0,95,0.00,OVC,,0.06,29.0,WeatherDisplay:10.37,2013-04-29 04:41:00,
2013-04-29 06:46:00,53.1,52.0,30.03,NE,45,0.0,0.0,96,0.00,OVC,,0.06,31.7,WeatherDisplay:10.37,2013-04-29 04:46:00,
2013-04-29 06:51:00,53.6,52.5,30.03,ESE,112,0.0,0.0,96,0.00,OVC,,0.06,34.3,WeatherDisplay:10.37,2013-04-29 04:51:00,
2013-04-29 06:56:00,54.0,52.8,30.03,ESE,112,2.3,2.3,96,0.00,OVC,,0.06,37.1,WeatherDisplay:10.37,2013-04-29 04:56:00,
2013-04-29 07:01:00,54.5,53.4,30.03,ESE,112,3.5,3.5,96,0.00,OVC,,0.06,39.9,WeatherDisplay:10.37,2013-04-29 05:01:00,
2013-04-29 07:06:00,55.0,53.9,30.03,WSW,248,0.0,0.0,96,0.00,OVC,,0.06,42.6,WeatherDisplay:10.37,2013-04-29 05:06:00,
2013-04-29 07:11:00,55.6,54.5,30.03,West,270,0.0,0.9,96,0.00,OVC,,0.06,45.4,WeatherDisplay:10.37,2013-04-29 05:11:00,
2013-04-29 07:16:00,55.9,54.8,30.00,SSW,202,2.3,0.0,96,0.00,RA,,0.07,48.2,WeatherDisplay:10.37,2013-04-29 05:16:00,
2013-04-29 07:21:00,56.5,55.4,30.00,SSE,158,2.3,2.3,96,0.00,RA,,0.07,51.0,WeatherDisplay:10.37,2013-04-29 05:21:00,
2013-04-29 07:26:00,56.8,55.7,30.00,South,180,2.3,2.3,96,0.00,OVC,,0.07,53.8,WeatherDisplay:10.37,2013-04-29 05:26:00,
2013-04-29 07:31:00,57.2,55.8,30.03,SSW,202,3.5,3.5,95,0.00,OVC,,0.07,56.6,WeatherDisplay:10.37,2013-04-29 05:31:00,
2013-04-29 07:36:00,58.1,55.8,30.03,SW,225,2.3,2.3,92,0.00,OVC,,0.07,59.4,WeatherDisplay:10.37,2013-04-29 05:36:00,
2013-04-29 07:41:00,58.5,55.8,30.03,SW,225,2.3,2.3,91,0.00,OVC,,0.07,62.2,WeatherDisplay:10.37,2013-04-29 05:41:00,
2013-04-29 07:46:00,59.2,56.2,30.03,WSW,248,3.5,3.5,90,0.00,OVC,,0.07,65.0,WeatherDisplay:10.37,2013-04-29 05:46:00,
2013-04-29 07:51:00,59.9,56.3,30.03,ESE,112,3.5,3.5,88,0.00,OVC,,0.07,68.0,WeatherDisplay:10.37,2013-04-29 05:51:00,
2013-04-29 07:56:00,60.4,56.6,30.03,SSW,202,1.2,0.0,87,0.00,OVC,,0.07,70.8,WeatherDisplay:10.37,2013-04-29 05:56:00,
2013-04-29 08:01:00,61.0,56.1,30.03,SSE,158,3.5,3.5,84,0.00,RA,,0.00,73.6,WeatherDisplay:10.37,2013-04-29 06:01:00,
2013-04-29 08:06:00,61.3,55.8,30.03,SSW,202,3.5,3.5,82,0.00,RA,,0.00,76.4,WeatherDisplay:10.37,2013-04-29 06:06:00,
2013-04-29 08:11:00,61.7,56.1,30.03,SSW,202,2.0,2.0,82,0.00,OVC,,0.00,79.2,WeatherDisplay:10.37,2013-04-29 06:11:00,
2013-04-29 08:16:00,62.4,56.5,30.03,WSW,248,2.4,2.4,81,0.00,OVC,,0.00,82.2,WeatherDisplay:10.37,2013-04-29 06:16:00,
2013-04-29 08:21:00,62.8,56.2,30.03,WSW,248,3.5,3.5,79,0.00,OVC,,0.00,85.0,WeatherDisplay:10.37,2013-04-29 06:21:00,
2013-04-29 08:26:00,63.1,56.5,30.03,WNW,292,2.9,2.9,79,0.00,OVC,,0.00,87.8,WeatherDisplay:10.37,2013-04-29 06:26:00,
2013-04-29 08:31:00,63.7,56.3,30.03,SSE,158,3.5,3.5,77,0.00,OVC,,0.00,90.4,WeatherDisplay:10.37,2013-04-29 06:31:00,
2013-04-29 08:36:00,64.2,55.8,30.03,SSW,202,5.8,5.8,74,0.00,OVC,,0.00,93.2,WeatherDisplay:10.37,2013-04-29 06:36:00,
2013-04-29 08:41:00,64.6,55.7,30.03,WSW,248,3.5,3.5,73,0.00,OVC,,0.00,96.0,WeatherDisplay:10.37,2013-04-29 06:41:00,
2013-04-29 08:46:00,64.9,55.7,30.06,SSE,158,5.8,5.8,72,0.00,OVC,,0.00,98.8,WeatherDisplay:10.37,2013-04-29 06:46:00,
2013-04-29 08:51:00,65.5,55.8,30.06,SSW,202,4.6,4.6,71,0.00,OVC,,0.00,101.5,WeatherDisplay:10.37,2013-04-29 06:51:00,
2013-04-29 08:56:00,65.7,55.6,30.06,SSW,202,6.0,6.0,70,0.00,OVC,,0.00,104.3,WeatherDisplay:10.37,2013-04-29 06:56:00,
2013-04-29 09:01:00,66.0,53.9,30.06,SSW,202,8.1,8.1,65,0.00,OVC,,0.00,106.9,WeatherDisplay:10.37,2013-04-29 07:01:00,
2013-04-29 09:06:00,66.2,54.5,30.06,South,180,4.6,4.6,66,0.00,OVC,,0.00,109.6,WeatherDisplay:10.37,2013-04-29 07:06:00,
2013-04-29 09:11:00,66.4,55.1,30.06,SSE,158,4.6,4.6,67,0.00,OVC,,0.00,112.2,WeatherDisplay:10.37,2013-04-29 07:11:00,
2013-04-29 09:16:00,66.7,55.0,30.06,SW,225,3.5,3.5,66,0.00,OVC,,0.00,114.8,WeatherDisplay:10.37,2013-04-29 07:16:00,
2013-04-29 09:21:00,67.1,54.5,30.06,SSW,202,5.8,5.8,64,0.00,OVC,,0.00,117.5,WeatherDisplay:10.37,2013-04-29 07:21:00,
2013-04-29 09:26:00,67.5,54.0,30.06,SSW,202,4.9,4.9,62,0.00,OVC,,0.00,120.0,WeatherDisplay:10.37,2013-04-29 07:26:00,
2013-04-29 09:31:00,67.8,53.0,30.03,WSW,248,8.1,8.1,59,0.00,OVC,,0.00,122.6,WeatherDisplay:10.37,2013-04-29 07:31:00,
2013-04-29 09:36:00,68.0,52.2,30.03,WSW,248,8.1,8.1,57,0.00,OVC,,0.00,125.1,WeatherDisplay:10.37,2013-04-29 07:36:00,
2013-04-29 09:41:00,68.4,51.1,30.03,SSW,202,8.1,8.1,54,0.00,OVC,,0.00,127.5,WeatherDisplay:10.37,2013-04-29 07:41:00,
2013-04-29 09:46:00,68.7,51.4,30.06,SSW,202,8.1,8.1,54,0.00,OVC,,0.00,129.9,WeatherDisplay:10.37,2013-04-29 07:46:00,
2013-04-29 09:51:00,69.1,51.7,30.06,WSW,248,8.1,8.5,54,0.00,OVC,,0.00,132.3,WeatherDisplay:10.37,2013-04-29 07:51:00,
2013-04-29 09:56:00,69.3,54.3,30.06,SSE,158,7.4,7.4,59,0.00,OVC,,0.00,134.6,WeatherDisplay:10.37,2013-04-29 07:56:00,
2013-04-29 10:01:00,69.8,53.4,30.06,SSW,202,9.8,9.8,56,0.00,OVC,,0.00,136.9,WeatherDisplay:10.37,2013-04-29 08:01:00,
2013-04-29 10:06:00,70.2,52.7,30.06,WSW,248,4.6,4.9,54,0.00,OVC,,0.00,139.3,WeatherDisplay:10.37,2013-04-29 08:06:00,
2013-04-29 10:11:00,70.5,53.1,30.06,SSW,202,4.6,4.6,54,0.00,OVC,,0.00,141.4,WeatherDisplay:10.37,2013-04-29 08:11:00,
2013-04-29 10:16:00,70.9,52.9,30.03,WSW,248,6.9,6.9,53,0.00,OVC,,0.00,143.6,WeatherDisplay:10.37,2013-04-29 08:16:00,
2013-04-29 10:21:00,71.2,55.2,30.03,SSE,158,8.1,8.1,57,0.00,OVC,,0.00,145.7,WeatherDisplay:10.37,2013-04-29 08:21:00,
2013-04-29 10:26:00,71.8,56.2,30.03,SSE,158,6.9,6.9,58,0.00,OVC,,0.00,147.7,WeatherDisplay:10.37,2013-04-29 08:26:00,
2013-04-29 10:31:00,72.3,56.2,30.00,WSW,248,6.9,6.9,57,0.00,OVC,,0.00,149.7,WeatherDisplay:10.37,2013-04-29 08:31:00,
2013-04-29 10:36:00,72.7,57.0,30.00,SSE,158,6.2,6.2,58,0.00,OVC,,0.00,151.6,WeatherDisplay:10.37,2013-04-29 08:36:00,
2013-04-29 10:41:00,72.7,52.4,30.00,SSW,202,9.2,9.2,49,0.00,OVC,,0.00,153.6,WeatherDisplay:10.37,2013-04-29 08:41:00,
2013-04-29 10:46:00,73.0,53.8,30.00,SSW,202,6.0,6.0,51,0.00,OVC,,0.00,155.4,WeatherDisplay:10.37,2013-04-29 08:46:00,
2013-04-29 10:51:00,73.2,55.1,30.00,ESE,112,8.1,8.1,53,0.00,OVC,,0.00,157.2,WeatherDisplay:10.37,2013-04-29 08:51:00,
2013-04-29 10:56:00,73.6,55.4,30.00,SSW,202,10.4,10.4,53,0.00,OVC,,0.00,158.9,WeatherDisplay:10.37,2013-04-29 08:56:00,
2013-04-29 11:01:00,73.8,51.7,30.03,West,270,8.5,8.5,46,0.00,OVC,,0.00,160.7,WeatherDisplay:10.37,2013-04-29 09:01:00,
2013-04-29 11:06:00,74.1,54.3,30.03,WSW,248,10.0,10.0,50,0.00,OVC,,0.00,162.2,WeatherDisplay:10.37,2013-04-29 09:06:00,
2013-04-29 11:11:00,74.5,56.2,30.03,SSW,202,3.5,3.5,53,0.00,OVC,,0.00,163.8,WeatherDisplay:10.37,2013-04-29 09:11:00,
2013-04-29 11:16:00,74.7,51.9,30.03,SSW,202,11.5,11.5,45,0.00,OVC,,0.00,165.3,WeatherDisplay:10.37,2013-04-29 09:16:00,
2013-04-29 11:21:00,74.7,51.3,30.03,SSW,202,9.8,9.8,44,0.00,OVC,,0.00,166.7,WeatherDisplay:10.37,2013-04-29 09:21:00,
2013-04-29 11:26:00,74.8,52.1,30.03,SSW,202,6.9,6.9,45,0.00,OVC,,0.00,168.0,WeatherDisplay:10.37,2013-04-29 09:26:00,
2013-04-29 11:31:00,75.0,51.6,30.03,SSW,202,12.7,12.7,44,0.00,OVC,,0.00,169.3,WeatherDisplay:10.37,2013-04-29 09:31:00,
2013-04-29 11:36:00,75.6,54.5,30.03,WSW,248,5.8,5.8,48,0.00,OVC,,0.00,170.6,WeatherDisplay:10.37,2013-04-29 09:36:00,
2013-04-29 11:41:00,75.7,54.1,30.03,South,180,8.1,8.1,47,0.00,OVC,,0.00,171.8,WeatherDisplay:10.37,2013-04-29 09:41:00,
2013-04-29 11:46:00,75.9,53.0,30.00,SW,225,8.1,8.1,45,0.00,OVC,,0.00,172.8,WeatherDisplay:10.37,2013-04-29 09:46:00,
2013-04-29 11:51:00,75.9,54.2,30.00,SSW,202,10.4,10.4,47,0.00,OVC,,0.00,173.7,WeatherDisplay:10.37,2013-04-29 09:51:00,
2013-04-29 11:56:00,76.3,55.1,30.00,SSW,202,5.8,5.8,48,0.00,OVC,,0.00,174.7,WeatherDisplay:10.37,2013-04-29 09:56:00,
2013-04-29 12:01:00,76.3,54.6,30.03,SE,135,5.9,5.9,47,0.00,OVC,,0.00,175.6,WeatherDisplay:10.37,2013-04-29 10:01:00,
2013-04-29 12:06:00,76.3,53.4,30.03,SSW,202,11.5,11.5,45,0.00,OVC,,0.00,176.4,WeatherDisplay:10.37,2013-04-29 10:06:00,
2013-04-29 12:11:00,76.5,53.5,30.03,West,270,9.2,9.2,45,0.00,OVC,,0.00,177.2,WeatherDisplay:10.37,2013-04-29 10:11:00,
2013-04-29 12:16:00,76.5,55.3,30.06,South,180,6.9,6.9,48,0.00,OVC,,0.00,177.9,WeatherDisplay:10.37,2013-04-29 10:16:00,
2013-04-29 12:21:00,76.6,51.8,30.06,WNW,292,10.4,10.4,42,0.00,OVC,,0.00,178.4,WeatherDisplay:10.37,2013-04-29 10:21:00,
2013-04-29 12:26:00,76.8,54.5,30.06,SSW,202,6.9,6.9,46,0.00,OVC,,0.00,178.9,WeatherDisplay:10.37,2013-04-29 10:26:00,
2013-04-29 12:31:00,77.0,52.8,30.03,SSE,158,8.7,8.7,43,0.00,OVC,,0.00,179.4,WeatherDisplay:10.37,2013-04-29 10:31:00,
2013-04-29 12:36:00,77.2,52.3,30.03,SW,225,10.4,10.4,42,0.00,OVC,,0.00,179.7,WeatherDisplay:10.37,2013-04-29 10:36:00,
2013-04-29 12:41:00,77.4,52.5,30.03,WSW,248,12.7,12.7,42,0.00,OVC,,0.00,180.0,WeatherDisplay:10.37,2013-04-29 10:41:00,
2013-04-29 12:46:00,77.4,52.5,30.03,SSW,202,8.1,8.1,42,0.00,OVC,,0.00,180.2,WeatherDisplay:10.37,2013-04-29 10:46:00,
2013-04-29 12:51:00,77.5,53.3,30.03,West,270,9.2,9.2,43,0.00,OVC,,0.00,180.3,WeatherDisplay:10.37,2013-04-29 10:51:00,
2013-04-29 12:56:00,77.9,53.0,30.03,WSW,248,10.5,10.5,42,0.00,OVC,,0.00,180.3,WeatherDisplay:10.37,2013-04-29 10:56:00,
2013-04-29 13:01:00,77.7,52.1,30.06,WSW,248,10.4,10.4,41,0.00,OVC,,0.00,180.3,WeatherDisplay:10.37,2013-04-29 11:01:00,
2013-04-29 13:06:00,77.9,53.0,30.06,WSW,248,9.2,9.2,42,0.00,OVC,,0.00,180.2,WeatherDisplay:10.37,2013-04-29 11:06:00,
2013-04-29 13:11:00,77.9,53.6,30.06,South,180,3.8,3.8,43,0.00,OVC,,0.00,180.0,WeatherDisplay:10.37,2013-04-29 11:11:00,
2013-04-29 13:16:00,78.3,52.6,30.06,WNW,292,10.4,10.4,41,0.00,OVC,,0.00,179.8,WeatherDisplay:10.37,2013-04-29 11:16:00,
2013-04-29 13:21:00,78.8,51.7,30.06,West,270,9.2,9.2,39,0.00,OVC,,0.00,179.5,WeatherDisplay:10.37,2013-04-29 11:21:00,
2013-04-29 13:26:00,79.2,50.6,30.06,SSW,202,8.1,8.1,37,0.00,OVC,,0.00,179.0,WeatherDisplay:10.37,2013-04-29 11:26:00,
2013-04-29 13:31:00,79.5,53.1,30.06,SSE,158,8.1,8.1,40,0.00,OVC,,0.00,178.7,WeatherDisplay:10.37,2013-04-29 11:31:00,
2013-04-29 13:36:00,79.7,51.1,30.03,SW,225,7.8,7.8,37,0.00,OVC,,0.00,178.0,WeatherDisplay:10.37,2013-04-29 11:36:00,
2013-04-29 13:41:00,79.9,52.0,30.03,SSW,202,9.2,9.2,38,0.00,OVC,,0.00,177.4,WeatherDisplay:10.37,2013-04-29 11:41:00,
2013-04-29 13:46:00,80.1,50.7,30.03,WNW,292,12.7,12.7,36,0.00,OVC,,0.00,176.7,WeatherDisplay:10.37,2013-04-29 11:46:00,
2013-04-29 13:51:00,80.1,52.2,30.03,WSW,248,12.7,12.7,38,0.00,OVC,,0.00,176.1,WeatherDisplay:10.37,2013-04-29 11:51:00,
2013-04-29 13:56:00,80.2,51.6,30.03,SSW,202,10.4,10.4,37,0.00,OVC,,0.00,175.2,WeatherDisplay:10.37,2013-04-29 11:56:00,
2013-04-29 14:01:00,80.2,51.6,30.00,WSW,248,8.1,8.1,37,0.00,OVC,,0.00,174.2,WeatherDisplay:10.37,2013-04-29 12:01:00,
2013-04-29 14:06:00,80.2,50.1,30.00,SSW,202,15.0,15.0,35,0.00,OVC,,0.00,173.3,WeatherDisplay:10.37,2013-04-29 12:06:00,
2013-04-29 14:11:00,80.2,50.9,30.00,WSW,248,12.7,12.7,36,0.00,OVC,,0.00,172.3,WeatherDisplay:10.37,2013-04-29 12:11:00,
2013-04-29 14:16:00,80.4,49.5,30.00,SSW,202,9.2,9.2,34,0.00,OVC,,0.00,171.1,WeatherDisplay:10.37,2013-04-29 12:16:00,
2013-04-29 14:21:00,80.8,52.1,30.00,West,270,8.5,8.5,37,0.00,OVC,,0.00,169.9,WeatherDisplay:10.37,2013-04-29 12:21:00,
2013-04-29 14:26:00,81.1,54.5,30.00,West,270,5.8,5.8,40,0.00,OVC,,0.00,168.6,WeatherDisplay:10.37,2013-04-29 12:26:00,
2013-04-29 14:31:00,81.5,51.2,29.97,SW,225,11.5,11.5,35,0.00,OVC,,0.00,167.3,WeatherDisplay:10.37,2013-04-29 12:31:00,
2013-04-29 14:36:00,81.9,50.7,29.97,SSW,202,10.4,10.4,34,0.00,OVC,,0.00,166.0,WeatherDisplay:10.37,2013-04-29 12:36:00,
2013-04-29 14:41:00,81.9,49.9,29.97,SSW,202,15.0,15.0,33,0.00,OVC,,0.00,164.5,WeatherDisplay:10.37,2013-04-29 12:41:00,
2013-04-29 14:46:00,81.9,49.9,30.00,West,270,8.7,8.7,33,0.00,OVC,,0.00,163.0,WeatherDisplay:10.37,2013-04-29 12:46:00,
2013-04-29 14:51:00,82.2,50.2,30.00,WSW,248,11.5,11.5,33,0.00,OVC,,0.00,161.4,WeatherDisplay:10.37,2013-04-29 12:51:00,
2013-04-29 14:56:00,82.8,51.5,30.00,SSW,202,12.7,12.7,34,0.00,OVC,,0.00,159.7,WeatherDisplay:10.37,2013-04-29 12:56:00,
2013-04-29 15:01:00,82.8,50.7,30.00,WSW,248,10.4,10.4,33,0.00,OVC,,0.00,158.1,WeatherDisplay:10.37,2013-04-29 13:01:00,
2013-04-29 15:06:00,83.3,52.8,30.00,WSW,248,8.1,8.1,35,0.00,OVC,,0.00,156.3,WeatherDisplay:10.37,2013-04-29 13:06:00,
2013-04-29 15:11:00,82.9,50.0,30.00,SSW,202,17.3,17.3,32,0.00,OVC,,0.00,154.4,WeatherDisplay:10.37,2013-04-29 13:11:00,
2013-04-29 15:16:00,82.8,49.9,30.00,WSW,248,10.4,10.4,32,0.00,OVC,,0.00,152.6,WeatherDisplay:10.37,2013-04-29 13:16:00,
2013-04-29 15:21:00,82.8,49.9,30.00,SSW,202,10.4,10.4,32,0.00,OVC,,0.00,150.6,WeatherDisplay:10.37,2013-04-29 13:21:00,
2013-04-29 15:26:00,82.8,49.9,30.00,WSW,248,10.4,10.4,32,0.00,OVC,,0.00,148.7,WeatherDisplay:10.37,2013-04-29 13:26:00,
2013-04-29 15:31:00,83.1,51.0,29.97,WSW,248,9.2,9.2,33,0.00,OVC,,0.00,146.7,WeatherDisplay:10.37,2013-04-29 13:31:00,
2013-04-29 15:36:00,83.5,50.5,29.97,WSW,248,13.8,13.8,32,0.00,OVC,,0.00,144.5,WeatherDisplay:10.37,2013-04-29 13:36:00,
2013-04-29 15:41:00,83.1,50.2,29.97,WSW,248,11.5,11.5,32,0.00,OVC,,0.00,142.4,WeatherDisplay:10.37,2013-04-29 13:41:00,
2013-04-29 15:46:00,82.9,50.0,29.97,SSW,202,12.7,12.7,32,0.00,OVC,,0.00,140.3,WeatherDisplay:10.37,2013-04-29 13:46:00,
2013-04-29 15:51:00,82.6,49.7,29.97,WSW,248,10.4,10.4,32,0.00,OVC,,0.00,137.9,WeatherDisplay:10.37,2013-04-29 13:51:00,
2013-04-29 15:56:00,82.9,50.0,29.97,SSW,202,10.4,10.4,32,0.00,OVC,,0.00,135.8,WeatherDisplay:10.37,2013-04-29 13:56:00,
2013-04-29 16:01:00,83.1,50.2,29.97,SW,225,12.7,12.7,32,0.00,OVC,,0.00,133.5,WeatherDisplay:10.37,2013-04-29 14:01:00,
2013-04-29 16:06:00,83.1,49.3,29.97,SSW,202,12.7,12.7,31,0.00,OVC,,0.00,131.0,WeatherDisplay:10.37,2013-04-29 14:06:00,
2013-04-29 16:11:00,82.8,49.0,29.97,WSW,248,12.7,12.7,31,0.00,OVC,,0.00,128.7,WeatherDisplay:10.37,2013-04-29 14:11:00,
2013-04-29 16:16:00,82.6,48.9,29.97,SW,225,12.7,12.7,31,0.00,OVC,,0.00,126.2,WeatherDisplay:10.37,2013-04-29 14:16:00,
2013-04-29 16:21:00,82.4,47.8,29.97,SSW,202,12.8,12.8,30,0.00,OVC,,0.00,123.8,WeatherDisplay:10.37,2013-04-29 14:21:00,
2013-04-29 16:26:00,82.4,47.8,29.97,WSW,248,15.0,15.0,30,0.00,OVC,,0.00,121.3,WeatherDisplay:10.37,2013-04-29 14:26:00,
2013-04-29 16:31:00,82.4,47.8,29.97,WNW,292,12.7,12.7,30,0.00,OVC,,0.00,118.8,WeatherDisplay:10.37,2013-04-29 14:31:00,
2013-04-29 16:36:00,82.0,47.5,29.97,WSW,248,13.0,13.0,30,0.00,OVC,,0.00,116.2,WeatherDisplay:10.37,2013-04-29 14:36:00,
2013-04-29 16:41:00,82.0,47.5,29.97,WSW,248,18.4,18.4,30,0.00,OVC,,0.00,113.5,WeatherDisplay:10.37,2013-04-29 14:41:00,
2013-04-29 16:46:00,81.7,47.2,29.97,SSW,202,15.0,15.0,30,0.00,OVC,,0.00,110.9,WeatherDisplay:10.37,2013-04-29 14:46:00,
2013-04-29 16:51:00,81.1,47.6,29.97,WSW,248,11.5,11.5,31,0.00,OVC,,0.00,108.2,WeatherDisplay:10.37,2013-04-29 14:51:00,
2013-04-29 16:56:00,81.0,47.5,29.97,WSW,248,13.0,13.0,31,0.00,OVC,,0.00,105.6,WeatherDisplay:10.37,2013-04-29 14:56:00,
2013-04-29 17:01:00,81.1,47.6,29.97,West,270,12.1,12.1,31,0.00,OVC,,0.00,103.0,WeatherDisplay:10.37,2013-04-29 15:01:00,
2013-04-29 17:06:00,80.8,47.3,29.97,WSW,248,12.7,12.7,31,0.00,OVC,,0.00,100.2,WeatherDisplay:10.37,2013-04-29 15:06:00,
2013-04-29 17:11:00,80.6,47.2,29.97,WSW,248,17.3,17.3,31,0.00,OVC,,0.00,97.5,WeatherDisplay:10.37,2013-04-29 15:11:00,
2013-04-29 17:16:00,80.6,48.0,29.97,WSW,248,8.5,8.5,32,0.00,OVC,,0.00,94.7,WeatherDisplay:10.37,2013-04-29 15:16:00,
2013-04-29 17:21:00,80.4,47.9,29.97,SSW,202,7.4,7.4,32,0.00,OVC,,0.00,91.9,WeatherDisplay:10.37,2013-04-29 15:21:00,
2013-04-29 17:26:00,80.2,47.7,29.97,SSW,202,15.0,15.0,32,0.00,OVC,,0.00,89.1,WeatherDisplay:10.37,2013-04-29 15:26:00,
2013-04-29 17:31:00,79.9,46.5,29.97,SW,225,20.7,20.7,31,0.00,OVC,,0.00,86.3,WeatherDisplay:10.37,2013-04-29 15:31:00,
2013-04-29 17:36:00,79.3,46.9,29.97,WSW,248,9.2,9.2,32,0.00,OVC,,0.00,83.5,WeatherDisplay:10.37,2013-04-29 15:36:00,
2013-04-29 17:41:00,78.8,46.4,29.97,SW,225,10.4,10.4,32,0.00,OVC,,0.00,80.7,WeatherDisplay:10.37,2013-04-29 15:41:00,
2013-04-29 17:46:00,78.4,46.1,29.97,SSW,202,12.1,12.1,32,0.00,OVC,,0.00,77.9,WeatherDisplay:10.37,2013-04-29 15:46:00,
2013-04-29 17:51:00,78.1,45.8,29.97,WSW,248,8.1,8.1,32,0.00,OVC,,0.00,75.1,WeatherDisplay:10.37,2013-04-29 15:51:00,
2013-04-29 17:56:00,77.9,46.5,29.97,SSW,202,12.7,12.7,33,0.00,OVC,,0.00,72.3,WeatherDisplay:10.37,2013-04-29 15:56:00,
2013-04-29 18:01:00,77.9,46.5,29.94,WSW,248,9.2,9.2,33,0.00,OVC,,0.00,69.5,WeatherDisplay:10.37,2013-04-29 16:01:00,
2013-04-29 18:06:00,77.5,46.2,29.94,WSW,248,17.5,17.5,33,0.00,OVC,,0.00,66.5,WeatherDisplay:10.37,2013-04-29 16:06:00,
2013-04-29 18:11:00,77.4,46.8,29.94,SSW,202,5.8,5.8,34,0.00,OVC,,0.00,63.7,WeatherDisplay:10.37,2013-04-29 16:11:00,
2013-04-29 18:16:00,77.0,47.2,30.00,SSW,202,6.2,6.2,35,0.00,OVC,,0.00,60.9,WeatherDisplay:10.37,2013-04-29 16:16:00,
2013-04-29 18:21:00,77.0,45.7,30.00,SSW,202,11.5,11.5,33,0.00,OVC,,0.00,58.1,WeatherDisplay:10.37,2013-04-29 16:21:00,
2013-04-29 18:26:00,77.0,45.7,30.00,WSW,248,12.3,12.3,33,0.00,OVC,,0.00,55.3,WeatherDisplay:10.37,2013-04-29 16:26:00,
2013-04-29 18:31:00,76.8,45.5,29.97,SSW,202,10.4,10.4,33,0.00,OVC,,0.00,52.5,WeatherDisplay:10.37,2013-04-29 16:31:00,
2013-04-29 18:36:00,76.8,46.3,29.97,WSW,248,10.4,10.4,34,0.00,OVC,,0.00,49.7,WeatherDisplay:10.37,2013-04-29 16:36:00,
2013-04-29 18:41:00,76.5,46.0,29.97,WSW,248,4.6,4.6,34,0.00,OVC,,0.00,46.9,WeatherDisplay:10.37,2013-04-29 16:41:00,
2013-04-29 18:46:00,76.3,46.6,29.97,SSW,202,6.9,6.9,35,0.00,OVC,,0.00,44.1,WeatherDisplay:10.37,2013-04-29 16:46:00,
2013-04-29 18:51:00,76.1,45.7,29.97,SW,225,6.9,6.9,34,0.00,OVC,,0.00,41.3,WeatherDisplay:10.37,2013-04-29 16:51:00,
2013-04-29 18:56:00,75.7,46.1,29.97,WSW,248,5.8,5.8,35,0.00,OVC,,0.00,38.6,WeatherDisplay:10.37,2013-04-29 16:56:00,
2013-04-29 19:01:00,75.4,46.6,29.97,WSW,248,8.1,8.1,36,0.00,OVC,,0.00,35.8,WeatherDisplay:10.37,2013-04-29 17:01:00,
2013-04-29 19:06:00,75.2,46.4,29.97,SSW,202,4.3,4.3,36,0.00,OVC,,0.00,33.2,WeatherDisplay:10.37,2013-04-29 17:06:00,
2013-04-29 19:11:00,75.0,47.7,29.97,SW,225,2.4,2.4,38,0.00,OVC,,0.00,30.5,WeatherDisplay:10.37,2013-04-29 17:11:00,
2013-04-29 19:16:00,74.5,47.9,29.97,WSW,248,3.5,3.5,39,0.00,OVC,,0.00,27.7,WeatherDisplay:10.37,2013-04-29 17:16:00,
2013-04-29 19:21:00,73.9,48.1,29.97,WSW,248,3.5,3.5,40,0.00,OVC,,0.00,25.1,WeatherDisplay:10.37,2013-04-29 17:21:00,
2013-04-29 19:26:00,73.4,48.3,29.97,WSW,248,2.3,2.3,41,0.00,OVC,,0.00,22.4,WeatherDisplay:10.37,2013-04-29 17:26:00,
2013-04-29 19:31:00,73.0,48.6,30.00,WSW,248,1.2,1.2,42,0.00,OVC,,0.00,20.0,WeatherDisplay:10.37,2013-04-29 17:31:00,
2013-04-29 19:36:00,72.5,48.1,30.00,SW,225,3.5,3.5,42,0.00,OVC,,0.00,17.3,WeatherDisplay:10.37,2013-04-29 17:36:00,
2013-04-29 19:41:00,72.1,48.4,30.00,WSW,248,4.7,4.7,43,0.00,OVC,,0.00,14.7,WeatherDisplay:10.37,2013-04-29 17:41:00,
2013-04-29 19:46:00,71.8,48.7,30.00,SSW,202,2.3,2.3,44,0.00,OVC,,0.00,12.2,WeatherDisplay:10.37,2013-04-29 17:46:00,
2013-04-29 19:51:00,71.4,48.4,30.00,SSW,202,1.6,1.6,44,0.00,OVC,,0.00,9.7,WeatherDisplay:10.37,2013-04-29 17:51:00,
2013-04-29 19:56:00,71.1,48.6,30.00,SW,225,1.2,1.2,45,0.00,OVC,,0.00,7.3,WeatherDisplay:10.37,2013-04-29 17:56:00,
2013-04-29 20:01:00,70.5,48.1,29.97,SSW,202,1.2,1.2,45,0.00,CLR,,0.00,0.0,WeatherDisplay:10.37,2013-04-29 18:01:00,
2013-04-29 20:06:00,70.2,47.8,29.97,SSW,202,2.3,2.3,45,0.00,CLR,,0.00,0.0,WeatherDisplay:10.37,2013-04-29 18:06:00,
2013-04-29 20:11:00,69.6,47.9,29.97,SSW,202,1.6,1.6,46,0.00,CLR,,0.00,0.0,WeatherDisplay:10.37,2013-04-29 18:11:00,
2013-04-29 20:16:00,69.3,47.6,30.00,SW,225,2.2,2.2,46,0.00,CLR,,0.00,0.0,WeatherDisplay:10.37,2013-04-29 18:16:00,
2013-04-29 20:21:00,69.1,48.0,30.00,SW,225,2.3,2.3,47,0.00,CLR,,0.00,0.0,WeatherDisplay:10.37,2013-04-29 18:21:00,
2013-04-29 20:26:00,68.5,48.6,30.00,SSW,202,2.4,2.4,49,0.00,CLR,,0.00,0.0,WeatherDisplay:10.37,2013-04-29 18:26:00,
2013-04-29 20:31:00,68.2,48.3,30.00,SSW,202,2.3,2.3,49,0.00,CLR,,0.00,0.0,WeatherDisplay:10.37,2013-04-29 18:31:00,
2013-04-29 20:36:00,67.8,48.0,30.00,SW,225,2.3,2.3,49,0.00,CLR,,0.00,0.0,WeatherDisplay:10.37,2013-04-29 18:36:00,
2013-04-29 20:41:00,67.6,48.3,30.00,SSW,202,1.2,0.0,50,0.00,CLR,,0.00,0.0,WeatherDisplay:10.37,2013-04-29 18:41:00,
2013-04-29 20:46:00,67.5,48.7,30.03,SW,225,0.0,0.0,51,0.00,CLR,,0.00,0.0,WeatherDisplay:10.37,2013-04-29 18:46:00,
2013-04-29 20:51:00,67.1,48.4,30.03,WSW,248,0.0,0.0,51,0.00,CLR,,0.00,0.0,WeatherDisplay:10.37,2013-04-29 18:51:00,
2013-04-29 20:56:00,66.9,48.7,30.03,WSW,248,0.0,0.0,52,0.00,CLR,,0.00,0.0,WeatherDisplay:10.37,2013-04-29 18:56:00,
2013-04-29 21:01:00,66.7,49.1,30.03,SSW,202,2.3,2.3,53,0.00,CLR,,0.00,0.0,WeatherDisplay:10.37,2013-04-29 19:01:00,
2013-04-29 21:06:00,66.4,48.7,30.03,WSW,248,1.2,0.0,53,0.00,CLR,,0.00,0.0,WeatherDisplay:10.37,2013-04-29 19:06:00,
2013-04-29 21:11:00,66.2,49.1,30.03,SSW,202,1.2,0.0,54,0.00,CLR,,0.00,0.0,WeatherDisplay:10.37,2013-04-29 19:11:00,
2013-04-29 21:16:00,66.2,49.6,30.03,SW,225,3.5,3.5,55,0.00,CLR,,0.00,0.0,WeatherDisplay:10.37,2013-04-29 19:16:00,
2013-04-29 21:21:00,66.0,49.4,30.03,WSW,248,2.3,2.3,55,0.00,CLR,,0.00,0.0,WeatherDisplay:10.37,2013-04-29 19:21:00,
2013-04-29 21:26:00,66.0,49.4,30.03,SSW,202,1.6,0.0,55,0.00,CLR,,0.00,0.0,WeatherDisplay:10.37,2013-04-29 19:26:00,
2013-04-29 21:31:00,66.0,49.9,30.00,WSW,248,1.2,0.0,56,0.00,CLR,,0.00,0.0,WeatherDisplay:10.37,2013-04-29 19:31:00,
2013-04-29 21:37:00,66.0,50.3,30.00,WSW,248,2.3,2.3,57,0.00,CLR,,0.00,0.0,WeatherDisplay:10.37,2013-04-29 19:37:00,
2013-04-29 21:42:00,65.8,50.6,30.00,WSW,248,0.0,0.0,58,0.00,CLR,,0.00,0.0,WeatherDisplay:10.37,2013-04-29 19:42:00,
2013-04-29 21:47:00,65.7,50.5,30.03,WSW,248,1.2,1.2,58,0.00,CLR,,0.00,0.0,WeatherDisplay:10.37,2013-04-29 19:47:00,
2013-04-29 21:52:00,65.7,50.5,30.03,WSW,248,0.0,0.0,58,0.00,CLR,,0.00,0.0,WeatherDisplay:10.37,2013-04-29 19:52:00,
2013-04-29 21:57:00,65.5,51.2,30.03,WSW,248,2.3,2.3,60,0.00,CLR,,0.00,0.0,WeatherDisplay:10.37,2013-04-29 19:57:00,
2013-04-29 22:02:00,65.5,50.3,30.03,West,270,1.2,0.0,58,0.00,CLR,,0.00,0.0,WeatherDisplay:10.37,2013-04-29 20:02:00,
2013-04-29 22:07:00,65.3,50.1,30.03,SW,225,0.0,0.0,58,0.00,CLR,,0.00,0.0,WeatherDisplay:10.37,2013-04-29 20:07:00,
2013-04-29 22:12:00,65.3,50.1,30.03,WSW,248,1.2,0.0,58,0.00,CLR,,0.00,0.0,WeatherDisplay:10.37,2013-04-29 20:12:00,
2013-04-29 22:17:00,65.1,50.4,30.03,SSW,202,0.0,0.0,59,0.00,CLR,,0.00,0.0,WeatherDisplay:10.37,2013-04-29 20:17:00,
2013-04-29 22:22:00,65.1,50.9,30.03,SSW,202,0.9,0.0,60,0.00,CLR,,0.00,0.0,WeatherDisplay:10.37,2013-04-29 20:22:00,
2013-04-29 22:27:00,64.9,50.7,30.03,WSW,248,1.6,0.0,60,0.00,CLR,,0.00,0.0,WeatherDisplay:10.37,2013-04-29 20:27:00,
2013-04-29 22:32:00,64.8,50.5,30.03,SSW,202,2.0,2.0,60,0.00,CLR,,0.00,0.0,WeatherDisplay:10.37,2013-04-29 20:32:00,
2013-04-29 22:37:00,64.6,50.8,30.03,WSW,248,2.3,2.3,61,0.00,CLR,,0.00,0.0,WeatherDisplay:10.37,2013-04-29 20:37:00,
2013-04-29 22:42:00,64.6,50.4,30.03,SSW,202,1.2,1.2,60,0.00,CLR,,0.00,0.0,WeatherDisplay:10.37,2013-04-29 20:42:00,
2013-04-29 22:47:00,64.4,50.2,30.00,WSW,248,0.0,0.0,60,0.00,CLR,,0.00,0.0,WeatherDisplay:10.37,2013-04-29 20:47:00,
2013-04-29 22:52:00,64.4,51.1,30.00,SW,225,0.0,0.0,62,0.00,CLR,,0.00,0.0,WeatherDisplay:10.37,2013-04-29 20:52:00,
2013-04-29 22:57:00,64.4,51.5,30.00,SSW,202,0.9,0.0,63,0.00,CLR,,0.00,0.0,WeatherDisplay:10.37,2013-04-29 20:57:00,
2013-04-29 23:02:00,64.2,50.9,30.00,SSW,202,2.3,2.3,62,0.00,CLR,,0.00,0.0,WeatherDisplay:10.37,2013-04-29 21:02:00,
2013-04-29 23:07:00,64.2,50.9,30.00,SW,225,2.3,2.3,62,0.00,CLR,,0.00,0.0,WeatherDisplay:10.37,2013-04-29 21:07:00,
2013-04-29 23:12:00,64.2,50.5,30.00,WSW,248,0.0,0.0,61,0.00,CLR,,0.00,0.0,WeatherDisplay:10.37,2013-04-29 21:12:00,
2013-04-29 23:17:00,64.2,50.5,30.03,WSW,248,1.2,0.0,61,0.00,CLR,,0.00,0.0,WeatherDisplay:10.37,2013-04-29 21:17:00,
2013-04-29 23:22:00,64.0,50.8,30.03,WSW,248,0.0,0.0,62,0.00,CLR,,0.00,0.0,WeatherDisplay:10.37,2013-04-29 21:22:00,
2013-04-29 23:27:00,63.9,51.0,30.03,SSW,202,2.3,2.3,63,0.00,CLR,,0.00,0.0,WeatherDisplay:10.37,2013-04-29 21:27:00,
2013-04-29 23:32:00,63.9,50.6,30.03,SSW,202,2.3,2.3,62,0.00,CLR,,0.00,0.0,WeatherDisplay:10.37,2013-04-29 21:32:00,
2013-04-29 23:37:00,63.9,50.6,30.03,WSW,248,0.0,0.0,62,0.00,CLR,,0.00,0.0,WeatherDisplay:10.37,2013-04-29 21:37:00,
2013-04-29 23:42:00,63.9,50.6,30.03,WSW,248,0.0,0.0,62,0.00,CLR,,0.00,0.0,WeatherDisplay:10.37,2013-04-29 21:42:00,
2013-04-29 23:47:00,63.9,50.6,30.03,SSW,202,0.0,0.0,62,0.00,CLR,,0.00,0.0,WeatherDisplay:10.37,2013-04-29 21:47:00,
2013-04-29 23:52:00,63.7,50.8,30.03,SSW,202,2.3,2.3,63,0.00,CLR,,0.00,0.0,WeatherDisplay:10.37,2013-04-29 21:52:00,
2013-04-29 23:57:00,63.5,50.2,30.03,SSW,202,0.0,0.0,62,0.00,CLR,,0.00,0.0,WeatherDisplay:10.37,2013-04-29 21:57:00,